sensor_id;sensor_type;location;lat;lon;timestamp;P1;durP1;ratioP1;P2;durP2;ratioP2
17658;SDS011;8948;51.534;8.262;2023-04-07T00:04:13;8.50;;;4.60;;
17658;SDS011;8948;51.534;8.262;2023-04-07T00:09:13;5.03;;;4.17;;
17658;SDS011;8948;51.534;8.262;2023-04-07T00:14:14;4.40;;;3.60;;
17658;SDS011;8948;51.534;8.262;2023-04-07T00:19:15;5.10;;;3.70;;
17658;SDS011;8948;51.534;8.262;2023-04-07T00:24:15;5.53;;;3.47;;
17658;SDS011;8948;51.534;8.262;2023-04-07T00:29:16;4.97;;;3.73;;
17658;SDS011;8948;51.534;8.262;2023-04-07T00:34:16;3.60;;;2.93;;
17658;SDS011;8948;51.534;8.262;2023-04-07T00:39:17;7.07;;;3.30;;
17658;SDS011;8948;51.534;8.262;2023-04-07T00:44:18;3.83;;;2.70;;
17658;SDS011;8948;51.534;8.262;2023-04-07T00:49:19;3.10;;;2.50;;
17658;SDS011;8948;51.534;8.262;2023-04-07T00:54:20;2.83;;;2.50;;
17658;SDS011;8948;51.534;8.262;2023-04-07T00:59:22;3.17;;;2.33;;
17658;SDS011;8948;51.534;8.262;2023-04-07T01:09:49;2.17;;;1.97;;
17658;SDS011;8948;51.534;8.262;2023-04-07T01:15:12;2.90;;;2.20;;
17658;SDS011;8948;51.534;8.262;2023-04-07T01:20:18;2.40;;;2.10;;
17658;SDS011;8948;51.534;8.262;2023-04-07T01:30:50;2.37;;;1.90;;
17658;SDS011;8948;51.534;8.262;2023-04-07T01:35:53;3.03;;;2.07;;
17658;SDS011;8948;51.534;8.262;2023-04-07T01:40:55;1.97;;;1.77;;
17658;SDS011;8948;51.534;8.262;2023-04-07T01:45:58;2.23;;;1.83;;
17658;SDS011;8948;51.534;8.262;2023-04-07T01:50:59;2.73;;;2.10;;
17658;SDS011;8948;51.534;8.262;2023-04-07T01:55:59;2.03;;;1.70;;
17658;SDS011;8948;51.534;8.262;2023-04-07T02:01:00;2.87;;;1.97;;
17658;SDS011;8948;51.534;8.262;2023-04-07T02:06:03;4.67;;;1.87;;
17658;SDS011;8948;51.534;8.262;2023-04-07T02:11:07;2.27;;;1.70;;
17658;SDS011;8948;51.534;8.262;2023-04-07T02:16:09;1.83;;;1.50;;
17658;SDS011;8948;51.534;8.262;2023-04-07T02:21:12;1.80;;;1.67;;
17658;SDS011;8948;51.534;8.262;2023-04-07T02:26:14;2.40;;;1.70;;
17658;SDS011;8948;51.534;8.262;2023-04-07T02:31:15;1.50;;;1.40;;
17658;SDS011;8948;51.534;8.262;2023-04-07T02:36:15;2.00;;;1.80;;
17658;SDS011;8948;51.534;8.262;2023-04-07T02:41:16;3.07;;;1.90;;
17658;SDS011;8948;51.534;8.262;2023-04-07T02:46:17;2.60;;;1.73;;
17658;SDS011;8948;51.534;8.262;2023-04-07T02:51:17;1.90;;;1.63;;
17658;SDS011;8948;51.534;8.262;2023-04-07T02:56:18;3.53;;;1.53;;
17658;SDS011;8948;51.534;8.262;2023-04-07T03:01:18;2.37;;;1.67;;
17658;SDS011;8948;51.534;8.262;2023-04-07T03:06:19;1.93;;;1.40;;
17658;SDS011;8948;51.534;8.262;2023-04-07T03:11:21;1.73;;;1.57;;
17658;SDS011;8948;51.534;8.262;2023-04-07T03:16:21;1.60;;;1.50;;
17658;SDS011;8948;51.534;8.262;2023-04-07T03:21:22;2.20;;;1.60;;
17658;SDS011;8948;51.534;8.262;2023-04-07T03:26:22;2.07;;;1.60;;
17658;SDS011;8948;51.534;8.262;2023-04-07T03:31:23;3.30;;;1.40;;
17658;SDS011;8948;51.534;8.262;2023-04-07T03:36:24;1.23;;;1.13;;
17658;SDS011;8948;51.534;8.262;2023-04-07T03:41:26;1.63;;;1.40;;
17658;SDS011;8948;51.534;8.262;2023-04-07T03:46:27;1.40;;;1.30;;
17658;SDS011;8948;51.534;8.262;2023-04-07T03:51:28;1.50;;;1.40;;
17658;SDS011;8948;51.534;8.262;2023-04-07T03:56:28;1.30;;;1.20;;
17658;SDS011;8948;51.534;8.262;2023-04-07T04:01:29;1.40;;;1.10;;
17658;SDS011;8948;51.534;8.262;2023-04-07T04:06:30;1.10;;;1.00;;
17658;SDS011;8948;51.534;8.262;2023-04-07T04:11:31;1.33;;;1.20;;
17658;SDS011;8948;51.534;8.262;2023-04-07T04:16:31;1.07;;;1.03;;
17658;SDS011;8948;51.534;8.262;2023-04-07T04:21:34;3.03;;;1.13;;
17658;SDS011;8948;51.534;8.262;2023-04-07T04:26:34;1.33;;;1.23;;
17658;SDS011;8948;51.534;8.262;2023-04-07T04:31:35;1.20;;;1.10;;
17658;SDS011;8948;51.534;8.262;2023-04-07T04:36:36;1.73;;;1.23;;
17658;SDS011;8948;51.534;8.262;2023-04-07T04:41:36;1.40;;;1.17;;
17658;SDS011;8948;51.534;8.262;2023-04-07T04:46:37;1.37;;;1.27;;
17658;SDS011;8948;51.534;8.262;2023-04-07T04:51:37;1.40;;;1.30;;
17658;SDS011;8948;51.534;8.262;2023-04-07T04:56:38;5.27;;;1.40;;
17658;SDS011;8948;51.534;8.262;2023-04-07T05:01:38;1.30;;;1.20;;
17658;SDS011;8948;51.534;8.262;2023-04-07T05:06:39;1.50;;;1.27;;
17658;SDS011;8948;51.534;8.262;2023-04-07T05:11:40;1.73;;;1.20;;
17658;SDS011;8948;51.534;8.262;2023-04-07T05:16:41;1.10;;;1.00;;
17658;SDS011;8948;51.534;8.262;2023-04-07T05:21:41;1.17;;;1.07;;
17658;SDS011;8948;51.534;8.262;2023-04-07T05:26:42;1.13;;;1.03;;
17658;SDS011;8948;51.534;8.262;2023-04-07T05:31:42;1.20;;;1.10;;
17658;SDS011;8948;51.534;8.262;2023-04-07T05:36:43;1.27;;;1.10;;
17658;SDS011;8948;51.534;8.262;2023-04-07T05:41:44;1.70;;;1.10;;
17658;SDS011;8948;51.534;8.262;2023-04-07T05:46:44;1.50;;;1.30;;
17658;SDS011;8948;51.534;8.262;2023-04-07T05:51:45;1.90;;;1.63;;
17658;SDS011;8948;51.534;8.262;2023-04-07T05:56:45;2.87;;;1.60;;
17658;SDS011;8948;51.534;8.262;2023-04-07T06:01:46;1.57;;;1.20;;
17658;SDS011;8948;51.534;8.262;2023-04-07T06:06:46;1.50;;;1.40;;
17658;SDS011;8948;51.534;8.262;2023-04-07T06:11:47;1.33;;;1.23;;
17658;SDS011;8948;51.534;8.262;2023-04-07T06:16:48;1.77;;;1.20;;
17658;SDS011;8948;51.534;8.262;2023-04-07T06:21:49;1.87;;;1.00;;
17658;SDS011;8948;51.534;8.262;2023-04-07T06:26:50;1.87;;;1.20;;
17658;SDS011;8948;51.534;8.262;2023-04-07T06:31:51;2.20;;;1.20;;
17658;SDS011;8948;51.534;8.262;2023-04-07T06:36:52;1.33;;;1.23;;
17658;SDS011;8948;51.534;8.262;2023-04-07T06:41:52;1.50;;;1.40;;
17658;SDS011;8948;51.534;8.262;2023-04-07T06:46:53;1.40;;;1.30;;
17658;SDS011;8948;51.534;8.262;2023-04-07T06:51:54;2.20;;;1.63;;
17658;SDS011;8948;51.534;8.262;2023-04-07T06:56:55;1.27;;;1.17;;
17658;SDS011;8948;51.534;8.262;2023-04-07T07:01:56;2.10;;;1.20;;
17658;SDS011;8948;51.534;8.262;2023-04-07T07:06:56;3.10;;;1.00;;
17658;SDS011;8948;51.534;8.262;2023-04-07T07:11:57;1.83;;;1.20;;
17658;SDS011;8948;51.534;8.262;2023-04-07T07:16:57;1.30;;;0.90;;
17658;SDS011;8948;51.534;8.262;2023-04-07T07:21:58;0.97;;;0.90;;
17658;SDS011;8948;51.534;8.262;2023-04-07T07:26:59;1.50;;;0.90;;
17658;SDS011;8948;51.534;8.262;2023-04-07T07:32:01;1.10;;;1.00;;
17658;SDS011;8948;51.534;8.262;2023-04-07T07:37:01;1.73;;;0.93;;
17658;SDS011;8948;51.534;8.262;2023-04-07T07:42:02;1.17;;;1.07;;
17658;SDS011;8948;51.534;8.262;2023-04-07T07:47:03;1.47;;;1.10;;
17658;SDS011;8948;51.534;8.262;2023-04-07T07:52:03;2.13;;;1.03;;
17658;SDS011;8948;51.534;8.262;2023-04-07T07:57:04;1.57;;;1.20;;
17658;SDS011;8948;51.534;8.262;2023-04-07T08:02:05;1.10;;;1.00;;
17658;SDS011;8948;51.534;8.262;2023-04-07T08:07:06;1.10;;;1.00;;
17658;SDS011;8948;51.534;8.262;2023-04-07T08:12:06;1.23;;;1.00;;
17658;SDS011;8948;51.534;8.262;2023-04-07T08:17:07;1.73;;;1.63;;
17658;SDS011;8948;51.534;8.262;2023-04-07T08:22:08;16.07;;;6.67;;
17658;SDS011;8948;51.534;8.262;2023-04-07T08:27:08;29.03;;;11.10;;
17658;SDS011;8948;51.534;8.262;2023-04-07T08:32:09;45.43;;;16.57;;
17658;SDS011;8948;51.534;8.262;2023-04-07T08:37:10;5.87;;;3.10;;
17658;SDS011;8948;51.534;8.262;2023-04-07T08:42:11;8.30;;;3.00;;
17658;SDS011;8948;51.534;8.262;2023-04-07T08:47:13;2.40;;;1.63;;
17658;SDS011;8948;51.534;8.262;2023-04-07T08:52:16;1.40;;;1.23;;
17658;SDS011;8948;51.534;8.262;2023-04-07T08:57:21;3.27;;;1.20;;
17658;SDS011;8948;51.534;8.262;2023-04-07T09:02:22;2.10;;;1.30;;
17658;SDS011;8948;51.534;8.262;2023-04-07T09:07:24;1.63;;;1.20;;
17658;SDS011;8948;51.534;8.262;2023-04-07T09:12:25;1.17;;;0.90;;
17658;SDS011;8948;51.534;8.262;2023-04-07T09:17:27;1.10;;;1.00;;
17658;SDS011;8948;51.534;8.262;2023-04-07T09:27:35;3.20;;;2.37;;
17658;SDS011;8948;51.534;8.262;2023-04-07T09:32:36;1.43;;;1.33;;
17658;SDS011;8948;51.534;8.262;2023-04-07T09:37:37;3.33;;;1.57;;
17658;SDS011;8948;51.534;8.262;2023-04-07T09:42:47;1.40;;;1.30;;
17658;SDS011;8948;51.534;8.262;2023-04-07T09:47:48;1.93;;;1.10;;
17658;SDS011;8948;51.534;8.262;2023-04-07T09:52:49;3.00;;;2.40;;
17658;SDS011;8948;51.534;8.262;2023-04-07T09:57:54;4.67;;;1.40;;
17658;SDS011;8948;51.534;8.262;2023-04-07T10:02:55;1.43;;;1.33;;
17658;SDS011;8948;51.534;8.262;2023-04-07T10:07:56;1.50;;;1.20;;
17658;SDS011;8948;51.534;8.262;2023-04-07T10:12:57;1.77;;;1.00;;
17658;SDS011;8948;51.534;8.262;2023-04-07T10:17:58;2.40;;;1.13;;
17658;SDS011;8948;51.534;8.262;2023-04-07T10:23:01;1.10;;;1.00;;
17658;SDS011;8948;51.534;8.262;2023-04-07T10:28:08;1.20;;;1.10;;
17658;SDS011;8948;51.534;8.262;2023-04-07T10:33:11;1.33;;;1.23;;
17658;SDS011;8948;51.534;8.262;2023-04-07T10:38:12;1.50;;;1.40;;
17658;SDS011;8948;51.534;8.262;2023-04-07T10:43:13;1.73;;;1.30;;
17658;SDS011;8948;51.534;8.262;2023-04-07T10:48:38;3.37;;;1.30;;
17658;SDS011;8948;51.534;8.262;2023-04-07T10:59:15;4.50;;;1.20;;
17658;SDS011;8948;51.534;8.262;2023-04-07T11:04:18;1.40;;;1.30;;
17658;SDS011;8948;51.534;8.262;2023-04-07T11:09:18;1.53;;;1.30;;
17658;SDS011;8948;51.534;8.262;2023-04-07T11:14:27;3.43;;;1.40;;
17658;SDS011;8948;51.534;8.262;2023-04-07T11:19:29;1.30;;;1.20;;
17658;SDS011;8948;51.534;8.262;2023-04-07T11:24:34;5.43;;;1.80;;
17658;SDS011;8948;51.534;8.262;2023-04-07T11:29:38;1.20;;;1.10;;
17658;SDS011;8948;51.534;8.262;2023-04-07T11:34:38;1.53;;;1.20;;
17658;SDS011;8948;51.534;8.262;2023-04-07T11:39:39;1.40;;;1.30;;
17658;SDS011;8948;51.534;8.262;2023-04-07T11:44:46;1.20;;;1.10;;
17658;SDS011;8948;51.534;8.262;2023-04-07T11:49:47;1.40;;;1.30;;
17658;SDS011;8948;51.534;8.262;2023-04-07T11:54:47;1.47;;;1.20;;
17658;SDS011;8948;51.534;8.262;2023-04-07T12:00:04;1.20;;;1.10;;
17658;SDS011;8948;51.534;8.262;2023-04-07T12:05:09;1.40;;;1.30;;
17658;SDS011;8948;51.534;8.262;2023-04-07T12:10:23;2.30;;;1.10;;
17658;SDS011;8948;51.534;8.262;2023-04-07T12:15:26;1.40;;;1.30;;
17658;SDS011;8948;51.534;8.262;2023-04-07T12:20:27;1.93;;;1.73;;
17658;SDS011;8948;51.534;8.262;2023-04-07T12:25:28;1.93;;;1.80;;
17658;SDS011;8948;51.534;8.262;2023-04-07T12:30:29;4.73;;;1.67;;
17658;SDS011;8948;51.534;8.262;2023-04-07T12:35:30;1.60;;;1.50;;
17658;SDS011;8948;51.534;8.262;2023-04-07T12:40:31;1.83;;;1.47;;
17658;SDS011;8948;51.534;8.262;2023-04-07T12:45:33;1.87;;;1.70;;
17658;SDS011;8948;51.534;8.262;2023-04-07T12:50:34;1.60;;;1.50;;
17658;SDS011;8948;51.534;8.262;2023-04-07T12:55:35;1.60;;;1.50;;
17658;SDS011;8948;51.534;8.262;2023-04-07T13:00:36;1.60;;;1.50;;
17658;SDS011;8948;51.534;8.262;2023-04-07T13:05:37;1.57;;;1.47;;
17658;SDS011;8948;51.534;8.262;2023-04-07T13:10:37;2.90;;;1.53;;
17658;SDS011;8948;51.534;8.262;2023-04-07T13:15:38;1.70;;;1.60;;
17658;SDS011;8948;51.534;8.262;2023-04-07T13:20:38;1.73;;;1.53;;
17658;SDS011;8948;51.534;8.262;2023-04-07T13:25:39;1.40;;;1.30;;
17658;SDS011;8948;51.534;8.262;2023-04-07T13:30:40;1.30;;;1.20;;
17658;SDS011;8948;51.534;8.262;2023-04-07T13:35:41;1.27;;;1.13;;
17658;SDS011;8948;51.534;8.262;2023-04-07T13:40:41;1.13;;;1.03;;
17658;SDS011;8948;51.534;8.262;2023-04-07T13:45:43;1.43;;;1.20;;
17658;SDS011;8948;51.534;8.262;2023-04-07T13:50:45;2.03;;;1.20;;
17658;SDS011;8948;51.534;8.262;2023-04-07T13:55:45;2.10;;;1.00;;
17658;SDS011;8948;51.534;8.262;2023-04-07T14:00:46;1.23;;;1.10;;
17658;SDS011;8948;51.534;8.262;2023-04-07T14:05:47;1.30;;;1.20;;
17658;SDS011;8948;51.534;8.262;2023-04-07T14:10:48;1.73;;;1.30;;
17658;SDS011;8948;51.534;8.262;2023-04-07T14:15:48;2.10;;;1.07;;
17658;SDS011;8948;51.534;8.262;2023-04-07T14:20:49;1.87;;;1.10;;
17658;SDS011;8948;51.534;8.262;2023-04-07T14:25:50;1.37;;;1.20;;
17658;SDS011;8948;51.534;8.262;2023-04-07T14:30:50;1.43;;;1.30;;
17658;SDS011;8948;51.534;8.262;2023-04-07T14:35:51;1.20;;;1.10;;
17658;SDS011;8948;51.534;8.262;2023-04-07T14:40:52;2.13;;;1.50;;
17658;SDS011;8948;51.534;8.262;2023-04-07T14:45:52;1.30;;;1.20;;
17658;SDS011;8948;51.534;8.262;2023-04-07T14:50:53;1.30;;;1.20;;
17658;SDS011;8948;51.534;8.262;2023-04-07T14:55:53;1.17;;;1.03;;
17658;SDS011;8948;51.534;8.262;2023-04-07T15:00:54;1.77;;;1.10;;
17658;SDS011;8948;51.534;8.262;2023-04-07T15:05:55;1.20;;;1.03;;
17658;SDS011;8948;51.534;8.262;2023-04-07T15:10:55;1.20;;;1.10;;
17658;SDS011;8948;51.534;8.262;2023-04-07T15:15:56;1.30;;;1.20;;
17658;SDS011;8948;51.534;8.262;2023-04-07T15:21:06;1.20;;;1.10;;
17658;SDS011;8948;51.534;8.262;2023-04-07T15:26:08;1.43;;;1.20;;
17658;SDS011;8948;51.534;8.262;2023-04-07T15:31:08;1.30;;;1.10;;
17658;SDS011;8948;51.534;8.262;2023-04-07T15:36:09;1.20;;;1.10;;
17658;SDS011;8948;51.534;8.262;2023-04-07T15:41:13;1.37;;;1.20;;
17658;SDS011;8948;51.534;8.262;2023-04-07T15:46:17;4.47;;;1.47;;
17658;SDS011;8948;51.534;8.262;2023-04-07T15:51:18;1.83;;;1.37;;
17658;SDS011;8948;51.534;8.262;2023-04-07T15:56:18;1.30;;;1.20;;
17658;SDS011;8948;51.534;8.262;2023-04-07T16:01:20;1.60;;;1.50;;
17658;SDS011;8948;51.534;8.262;2023-04-07T16:06:21;1.70;;;1.37;;
17658;SDS011;8948;51.534;8.262;2023-04-07T16:11:21;1.37;;;1.27;;
17658;SDS011;8948;51.534;8.262;2023-04-07T16:16:22;2.63;;;1.30;;
17658;SDS011;8948;51.534;8.262;2023-04-07T16:21:22;1.27;;;1.17;;
17658;SDS011;8948;51.534;8.262;2023-04-07T16:26:23;2.00;;;1.30;;
17658;SDS011;8948;51.534;8.262;2023-04-07T16:31:24;1.53;;;1.40;;
17658;SDS011;8948;51.534;8.262;2023-04-07T16:36:24;1.50;;;1.40;;
17658;SDS011;8948;51.534;8.262;2023-04-07T16:41:25;1.40;;;1.30;;
17658;SDS011;8948;51.534;8.262;2023-04-07T16:46:27;1.70;;;1.50;;
17658;SDS011;8948;51.534;8.262;2023-04-07T16:51:28;4.40;;;1.50;;
17658;SDS011;8948;51.534;8.262;2023-04-07T16:56:29;1.60;;;1.30;;
17658;SDS011;8948;51.534;8.262;2023-04-07T17:01:30;2.13;;;1.40;;
17658;SDS011;8948;51.534;8.262;2023-04-07T17:06:30;5.37;;;1.50;;
17658;SDS011;8948;51.534;8.262;2023-04-07T17:11:31;1.53;;;1.40;;
17658;SDS011;8948;51.534;8.262;2023-04-07T17:16:32;1.50;;;1.20;;
17658;SDS011;8948;51.534;8.262;2023-04-07T17:21:32;2.20;;;1.40;;
17658;SDS011;8948;51.534;8.262;2023-04-07T17:26:33;1.60;;;1.50;;
17658;SDS011;8948;51.534;8.262;2023-04-07T17:31:33;2.17;;;1.33;;
17658;SDS011;8948;51.534;8.262;2023-04-07T17:36:34;1.30;;;1.10;;
17658;SDS011;8948;51.534;8.262;2023-04-07T17:41:36;6.00;;;1.50;;
17658;SDS011;8948;51.534;8.262;2023-04-07T17:46:37;5.37;;;1.50;;
17658;SDS011;8948;51.534;8.262;2023-04-07T17:51:37;4.93;;;2.20;;
17658;SDS011;8948;51.534;8.262;2023-04-07T17:56:38;2.03;;;1.57;;
17658;SDS011;8948;51.534;8.262;2023-04-07T18:01:39;2.00;;;1.60;;
17658;SDS011;8948;51.534;8.262;2023-04-07T18:06:40;2.20;;;1.63;;
17658;SDS011;8948;51.534;8.262;2023-04-07T18:11:40;1.70;;;1.50;;
17658;SDS011;8948;51.534;8.262;2023-04-07T18:16:41;5.37;;;1.87;;
17658;SDS011;8948;51.534;8.262;2023-04-07T18:21:42;6.17;;;2.00;;
17658;SDS011;8948;51.534;8.262;2023-04-07T18:26:42;1.93;;;1.73;;
17658;SDS011;8948;51.534;8.262;2023-04-07T18:31:43;4.77;;;2.30;;
17658;SDS011;8948;51.534;8.262;2023-04-07T18:36:43;2.03;;;1.83;;
17658;SDS011;8948;51.534;8.262;2023-04-07T18:41:46;2.07;;;1.80;;
17658;SDS011;8948;51.534;8.262;2023-04-07T18:46:47;3.23;;;1.90;;
17658;SDS011;8948;51.534;8.262;2023-04-07T18:51:48;3.93;;;2.07;;
17658;SDS011;8948;51.534;8.262;2023-04-07T18:56:48;1.90;;;1.70;;
17658;SDS011;8948;51.534;8.262;2023-04-07T19:01:49;2.37;;;1.90;;
17658;SDS011;8948;51.534;8.262;2023-04-07T19:06:50;3.93;;;2.07;;
17658;SDS011;8948;51.534;8.262;2023-04-07T19:11:51;2.77;;;1.90;;
17658;SDS011;8948;51.534;8.262;2023-04-07T19:16:51;3.27;;;2.27;;
17658;SDS011;8948;51.534;8.262;2023-04-07T19:21:52;4.00;;;2.30;;
17658;SDS011;8948;51.534;8.262;2023-04-07T19:26:52;7.23;;;2.77;;
17658;SDS011;8948;51.534;8.262;2023-04-07T19:31:53;3.90;;;2.53;;
17658;SDS011;8948;51.534;8.262;2023-04-07T19:36:56;2.93;;;2.63;;
17658;SDS011;8948;51.534;8.262;2023-04-07T19:41:57;5.13;;;2.40;;
17658;SDS011;8948;51.534;8.262;2023-04-07T19:46:57;5.13;;;2.50;;
17658;SDS011;8948;51.534;8.262;2023-04-07T19:51:58;5.87;;;2.80;;
17658;SDS011;8948;51.534;8.262;2023-04-07T19:56:59;3.73;;;2.60;;
17658;SDS011;8948;51.534;8.262;2023-04-07T20:02:00;3.80;;;3.13;;
17658;SDS011;8948;51.534;8.262;2023-04-07T20:07:01;3.00;;;2.60;;
17658;SDS011;8948;51.534;8.262;2023-04-07T20:12:01;5.63;;;3.00;;
17658;SDS011;8948;51.534;8.262;2023-04-07T20:17:02;4.33;;;3.23;;
17658;SDS011;8948;51.534;8.262;2023-04-07T20:22:03;5.10;;;3.13;;
17658;SDS011;8948;51.534;8.262;2023-04-07T20:27:04;4.30;;;3.50;;
17658;SDS011;8948;51.534;8.262;2023-04-07T20:32:05;3.80;;;3.13;;
17658;SDS011;8948;51.534;8.262;2023-04-07T20:37:05;6.63;;;3.77;;
17658;SDS011;8948;51.534;8.262;2023-04-07T20:42:06;6.07;;;3.57;;
17658;SDS011;8948;51.534;8.262;2023-04-07T20:47:10;7.47;;;4.20;;
17658;SDS011;8948;51.534;8.262;2023-04-07T20:52:11;4.27;;;3.50;;
17658;SDS011;8948;51.534;8.262;2023-04-07T20:57:12;4.23;;;3.37;;
17658;SDS011;8948;51.534;8.262;2023-04-07T21:02:13;5.80;;;3.43;;
17658;SDS011;8948;51.534;8.262;2023-04-07T21:07:13;6.47;;;3.67;;
17658;SDS011;8948;51.534;8.262;2023-04-07T21:12:14;3.87;;;2.90;;
17658;SDS011;8948;51.534;8.262;2023-04-07T21:17:15;4.87;;;3.70;;
17658;SDS011;8948;51.534;8.262;2023-04-07T21:22:15;4.33;;;3.33;;
17658;SDS011;8948;51.534;8.262;2023-04-07T21:27:16;4.30;;;2.97;;
17658;SDS011;8948;51.534;8.262;2023-04-07T21:32:17;4.40;;;3.13;;
17658;SDS011;8948;51.534;8.262;2023-04-07T21:37:18;4.90;;;2.70;;
17658;SDS011;8948;51.534;8.262;2023-04-07T21:42:19;4.50;;;3.20;;
17658;SDS011;8948;51.534;8.262;2023-04-07T21:47:21;3.70;;;2.90;;
17658;SDS011;8948;51.534;8.262;2023-04-07T21:52:21;4.33;;;2.80;;
17658;SDS011;8948;51.534;8.262;2023-04-07T21:57:22;4.77;;;3.40;;
17658;SDS011;8948;51.534;8.262;2023-04-07T22:02:22;4.60;;;3.17;;
17658;SDS011;8948;51.534;8.262;2023-04-07T22:07:23;5.23;;;3.73;;
17658;SDS011;8948;51.534;8.262;2023-04-07T22:12:24;5.50;;;3.27;;
17658;SDS011;8948;51.534;8.262;2023-04-07T22:17:24;4.20;;;3.53;;
17658;SDS011;8948;51.534;8.262;2023-04-07T22:22:25;4.53;;;3.30;;
17658;SDS011;8948;51.534;8.262;2023-04-07T22:27:26;5.20;;;3.03;;
17658;SDS011;8948;51.534;8.262;2023-04-07T22:32:26;5.57;;;3.60;;
17658;SDS011;8948;51.534;8.262;2023-04-07T22:37:27;5.27;;;3.70;;
17658;SDS011;8948;51.534;8.262;2023-04-07T22:42:27;5.50;;;4.03;;
17658;SDS011;8948;51.534;8.262;2023-04-07T22:47:28;5.47;;;3.90;;
17658;SDS011;8948;51.534;8.262;2023-04-07T22:52:28;7.03;;;4.17;;
17658;SDS011;8948;51.534;8.262;2023-04-07T22:57:29;5.27;;;3.87;;
17658;SDS011;8948;51.534;8.262;2023-04-07T23:02:30;5.37;;;3.60;;
17658;SDS011;8948;51.534;8.262;2023-04-07T23:07:31;6.13;;;3.60;;
17658;SDS011;8948;51.534;8.262;2023-04-07T23:12:32;5.40;;;3.63;;
17658;SDS011;8948;51.534;8.262;2023-04-07T23:17:32;4.73;;;3.80;;
17658;SDS011;8948;51.534;8.262;2023-04-07T23:22:33;4.80;;;3.67;;
17658;SDS011;8948;51.534;8.262;2023-04-07T23:27:33;5.63;;;3.73;;
17658;SDS011;8948;51.534;8.262;2023-04-07T23:32:34;4.60;;;3.40;;
17658;SDS011;8948;51.534;8.262;2023-04-07T23:37:35;5.77;;;4.10;;
17658;SDS011;8948;51.534;8.262;2023-04-07T23:42:35;4.47;;;3.10;;
17658;SDS011;8948;51.534;8.262;2023-04-07T23:47:36;5.27;;;3.00;;
17658;SDS011;8948;51.534;8.262;2023-04-07T23:52:36;3.63;;;3.00;;
17658;SDS011;8948;51.534;8.262;2023-04-07T23:57:37;3.73;;;3.30;;
